Time;durP1;ratioP1;P1;durP2;ratioP2;P2;SDS_P1;SDS_P2;PMS_P1;PMS_P2;Temp;Humidity;BMP_temperature;BMP_pressure;BME280_temperature;BME280_humidity;BME280_pressure;Samples;Min_cycle;Max_cycle;Signal;HPM_P1;HPM_P2
2022/04/20 00:01:04;;;;;;;2.88;2.30;;;;;;;21.77;43.45;100055.66;20475800;28;97142;-79
2022/04/20 00:11:04;;;;;;;2.63;2.20;;;;;;;21.77;43.25;100061.75;20471985;28;97706;-81
2022/04/20 00:21:05;;;;;;;2.47;2.20;;;;;;;21.75;43.32;100061.88;20474612;28;97147;-80
2022/04/20 00:31:05;;;;;;;4.20;2.47;;;;;;;21.74;43.43;100072.56;20484933;28;97020;-80
2022/04/20 00:41:08;;;;;;;3.50;2.38;;;;;;;21.70;43.42;100087.78;20490167;28;98539;-80
2022/04/20 00:51:08;;;;;;;2.30;1.93;;;;;;;21.67;43.53;100079.31;20486199;28;97686;-80
2022/04/20 01:01:09;;;;;;;2.35;2.00;;;;;;;21.67;43.55;100066.97;20497077;28;97316;-80
2022/04/20 01:11:10;;;;;;;3.83;2.13;;;;;;;21.65;43.24;100078.59;20494142;28;100813;-81
2022/04/20 01:21:11;;;;;;;2.47;2.20;;;;;;;21.65;43.36;100082.06;20487517;28;97052;-81
2022/04/20 01:31:16;;;;;;;4.75;2.47;;;;;;;21.63;43.14;100088.41;20489029;28;97092;-81
2022/04/20 01:41:17;;;;;;;2.15;1.95;;;;;;;21.57;43.23;100087.97;20489457;28;97462;-80
2022/04/20 02:11:57;;;;;;;2.38;2.00;;;;;;;21.56;43.11;100080.19;20483179;28;96932;-78
2022/04/20 02:21:57;;;;;;;2.72;2.45;;;;;;;21.55;43.29;100075.88;20490291;28;97933;-80
2022/04/20 02:31:58;;;;;;;2.20;1.95;;;;;;;21.54;43.32;100064.47;20484761;28;98152;-80
2022/04/20 02:41:59;;;;;;;2.50;2.30;;;;;;;21.52;43.42;100074.31;20484341;28;97226;-80
2022/04/20 02:52:02;;;;;;;3.15;2.15;;;;;;;21.52;43.12;100071.69;20488427;28;97311;-79
2022/04/20 03:02:03;;;;;;;2.13;1.85;;;;;;;21.48;43.05;100072.91;20470825;28;97466;-79
2022/04/20 03:12:05;;;;;;;2.63;2.03;;;;;;;21.46;43.20;100087.16;20482958;28;99487;-80
2022/04/20 03:22:06;;;;;;;2.20;2.00;;;;;;;21.43;43.32;100090.88;20469702;28;96940;-80
2022/04/20 03:32:12;;;;;;;2.17;1.98;;;;;;;21.44;43.37;100100.47;20476269;28;97077;-80
2022/04/20 03:42:14;;;;;;;2.40;1.90;;;;;;;21.41;43.38;100096.28;20468569;28;100593;-81
2022/04/20 03:52:14;;;;;;;2.33;1.90;;;;;;;21.38;43.20;100101.81;20464084;28;99359;-80
2022/04/20 04:02:17;;;;;;;3.38;2.20;;;;;;;21.39;43.68;100097.38;20460790;28;97049;-78
2022/04/20 04:12:23;;;;;;;2.25;1.80;;;;;;;21.43;44.60;100111.97;20474143;28;98364;-80
2022/04/20 04:22:24;;;;;;;2.75;2.03;;;;;;;21.50;44.84;100123.66;20461036;28;97175;-79
2022/04/20 04:32:24;;;;;;;3.20;2.00;;;;;;;21.55;44.50;100125.91;20456952;28;99525;-79
2022/04/20 04:42:25;;;;;;;5.78;1.80;;;;;;;21.63;44.94;100130.56;20430033;28;99858;-80
2022/04/20 04:52:27;;;;;;;12.73;2.70;;;;;;;21.72;44.89;100137.72;20428044;28;97540;-84
2022/04/20 05:02:28;;;;;;;14.33;4.33;;;;;;;21.58;42.30;100136.22;20455404;28;100710;-77
2022/04/20 05:12:34;;;;;;;12.85;3.67;;;;;;;21.65;42.50;100137.38;20436238;28;97170;-78
2022/04/20 05:22:36;;;;;;;13.55;4.57;;;;;;;21.67;42.04;100142.53;20453820;28;100781;-78
2022/04/20 05:32:37;;;;;;;11.00;3.88;;;;;;;21.79;43.90;100148.56;20476795;28;97533;-78
2022/04/20 05:42:37;;;;;;;8.60;3.58;;;;;;;21.87;45.22;100149.63;20469549;28;102308;-78
2022/04/20 05:52:39;;;;;;;9.48;4.05;;;;;;;21.97;46.03;100151.47;20461535;28;97510;-77
2022/04/20 06:02:40;;;;;;;10.80;4.35;;;;;;;22.04;47.33;100153.44;20457328;28;101909;-78
2022/04/20 06:12:41;;;;;;;7.68;3.33;;;;;;;22.11;47.74;100142.41;20461182;28;99534;-76
2022/04/20 06:22:41;;;;;;;10.82;3.55;;;;;;;22.13;47.55;100145.72;20476463;28;97661;-77
2022/04/20 06:32:42;;;;;;;8.60;3.10;;;;;;;22.14;47.05;100147.41;20463597;28;97821;-76
2022/04/20 06:42:42;;;;;;;5.75;2.67;;;;;;;22.17;46.68;100133.97;20459112;28;98939;-77
2022/04/20 07:03:04;;;;;;;5.50;2.60;;;;;;;22.15;45.89;100115.63;20467632;28;97765;-77
2022/04/20 07:13:04;;;;;;;4.57;2.40;;;;;;;22.15;45.67;100120.06;20457100;28;100015;-76
2022/04/20 07:23:05;;;;;;;4.82;2.72;;;;;;;22.13;45.36;100116.72;20455567;28;100655;-77
2022/04/20 07:33:06;;;;;;;4.72;2.47;;;;;;;22.15;45.26;100117.44;20458908;28;99485;-77
2022/04/20 07:43:07;;;;;;;6.45;2.70;;;;;;;22.21;45.63;100122.16;20435893;28;99515;-80
2022/04/20 07:53:08;;;;;;;4.95;2.50;;;;;;;22.16;44.86;100114.66;20475005;28;97664;-78
2022/04/20 08:03:13;;;;;;;5.13;2.30;;;;;;;22.15;44.91;100117.44;20470565;28;97844;-78
2022/04/20 08:23:36;;;;;;;5.40;2.10;;;;;;;22.14;43.62;100081.47;20484516;28;99598;-78
2022/04/20 08:33:36;;;;;;;2.50;1.85;;;;;;;22.13;43.89;100080.66;20479286;28;97199;-80
2022/04/20 08:43:40;;;;;;;4.43;2.15;;;;;;;22.13;43.48;100074.53;20469895;28;96983;-80
2022/04/20 08:53:41;;;;;;;3.47;2.20;;;;;;;22.13;43.59;100067.47;20488563;28;97017;-80
2022/04/20 09:03:46;;;;;;;3.53;2.35;;;;;;;22.10;43.61;100059.81;20483811;28;96928;-80
2022/04/20 09:13:47;;;;;;;2.88;2.17;;;;;;;22.12;43.38;100067.56;20498543;28;97413;-79
2022/04/20 09:23:47;;;;;;;3.70;1.93;;;;;;;22.09;43.41;100057.31;20493085;28;97622;-79
2022/04/20 09:33:54;;;;;;;4.70;2.05;;;;;;;22.09;43.50;100055.50;20489617;28;97367;-79
2022/04/20 09:44:09;;;;;;;2.30;1.83;;;;;;;22.11;42.70;100042.19;20478392;28;100733;-79
2022/04/20 09:54:27;;;;;;;4.65;2.20;;;;;;;22.15;42.67;100046.22;20492093;28;97165;-79
2022/04/20 10:04:27;;;;;;;3.38;2.00;;;;;;;22.20;42.46;100033.47;20487967;28;97298;-79
2022/04/20 10:24:55;;;;;;;2.80;1.80;;;;;;;22.26;42.32;100027.66;20497414;28;97340;-79
2022/04/20 10:34:58;;;;;;;2.60;1.95;;;;;;;22.31;42.22;100027.25;20495871;28;98823;-79
2022/04/20 10:45:05;;;;;;;2.00;1.80;;;;;;;22.29;42.20;100022.13;20497111;28;97437;-79
2022/04/20 10:55:06;;;;;;;2.05;1.80;;;;;;;22.29;41.90;100014.22;20502036;28;97059;-79
2022/04/20 11:05:14;;;;;;;3.20;1.70;;;;;;;22.34;42.02;100011.19;20493922;28;98062;-79
2022/04/20 11:25:45;;;;;;;2.30;1.70;;;;;;;22.45;42.15;100002.31;20476377;28;100536;-79
2022/04/20 11:36:06;;;;;;;4.05;1.90;;;;;;;22.53;42.00;99984.00;20485054;28;97326;-78
2022/04/20 11:46:08;;;;;;;4.13;1.90;;;;;;;22.54;41.82;99988.31;20483829;28;97458;-79
2022/04/20 11:56:11;;;;;;;2.00;1.60;;;;;;;22.65;42.13;99972.34;20474609;28;97504;-78
2022/04/20 12:06:12;;;;;;;3.95;1.90;;;;;;;22.78;41.80;99979.16;20461941;28;97318;-78
2022/04/20 12:16:14;;;;;;;8.45;1.77;;;;;;;22.87;42.09;99973.03;20450991;28;97950;-76
2022/04/20 12:26:14;;;;;;;2.67;1.80;;;;;;;22.99;42.16;99963.16;20484494;28;101105;-76
2022/04/20 12:36:15;;;;;;;2.40;1.90;;;;;;;23.08;41.58;99950.91;20495090;28;97295;-77
2022/04/20 12:46:16;;;;;;;2.72;1.90;;;;;;;23.07;41.47;99965.09;20492287;28;97376;-77
2022/04/20 13:06:37;;;;;;;3.58;2.00;;;;;;;23.08;40.80;99961.47;20492225;28;96951;-76
2022/04/20 13:16:38;;;;;;;2.22;2.00;;;;;;;22.97;40.63;99947.47;20414890;28;97247;-78
2022/04/20 13:36:57;;;;;;;11.43;3.92;;;;;;;22.94;39.02;99941.63;20404129;28;98252;-78
2022/04/20 13:46:58;;;;;;;17.55;4.80;;;;;;;22.93;38.75;99939.97;20412585;28;97680;-82
2022/04/20 13:56:59;;;;;;;11.23;5.03;;;;;;;22.89;37.52;99942.06;20420027;28;98302;-80
2022/04/20 14:07:03;;;;;;;14.40;5.23;;;;;;;22.95;37.89;99949.41;20425817;28;96764;-81
2022/04/20 14:17:03;;;;;;;11.95;4.70;;;;;;;22.93;37.29;99938.16;20424849;28;97209;-80
2022/04/20 14:37:24;;;;;;;7.60;3.95;;;;;;;23.14;36.89;99934.50;20508459;28;97036;-81
2022/04/20 14:47:25;;;;;;;9.63;4.10;;;;;;;23.06;35.61;99943.13;20510542;28;96854;-82
2022/04/20 14:57:26;;;;;;;8.00;4.23;;;;;;;23.15;36.01;99936.16;20506984;28;97185;-82
2022/04/20 15:07:27;;;;;;;6.17;3.87;;;;;;;23.56;35.35;99934.13;20506355;28;97948;-82
2022/04/20 15:17:27;;;;;;;5.88;3.78;;;;;;;24.10;34.16;99941.41;20498768;28;96974;-82
2022/04/20 15:27:28;;;;;;;5.97;4.03;;;;;;;24.04;34.43;99944.63;20477764;28;100204;-78
2022/04/20 15:37:28;;;;;;;5.82;3.70;;;;;;;23.97;33.42;99947.03;20487455;28;97003;-78
2022/04/20 15:47:29;;;;;;;6.28;4.30;;;;;;;23.67;34.18;99936.56;20486270;28;97864;-79
2022/04/20 16:07:49;;;;;;;10.05;4.90;;;;;;;24.14;26.85;99942.75;20454239;28;97629;-79
2022/04/20 16:17:51;;;;;;;5.60;5.00;;;;;;;23.53;22.97;99941.50;20413561;28;97500;-80
2022/04/20 16:27:51;;;;;;;8.98;6.20;;;;;;;23.00;22.66;99949.00;20353927;28;98422;-76
2022/04/20 16:37:52;;;;;;;7.97;6.00;;;;;;;22.42;23.05;99955.13;20349934;28;96907;-74
2022/04/20 16:47:53;;;;;;;8.13;5.18;;;;;;;22.38;23.88;99951.91;20359527;28;97738;-76
2022/04/20 16:57:53;;;;;;;6.03;4.30;;;;;;;22.48;26.74;99960.66;20351947;28;98249;-76
2022/04/20 17:07:55;;;;;;;22.05;13.90;;;;;;;22.53;30.87;99962.88;20348652;28;97426;-74
2022/04/20 17:17:55;;;;;;;19.95;12.77;;;;;;;22.49;32.38;99970.25;20371432;28;98508;-75
2022/04/20 17:27:56;;;;;;;18.98;11.52;;;;;;;22.45;33.06;99968.88;20392995;28;98569;-74
2022/04/20 17:37:56;;;;;;;18.02;10.60;;;;;;;22.49;34.00;99975.53;20383977;28;97039;-75
2022/04/20 17:47:57;;;;;;;89.53;27.67;;;;;;;22.53;34.94;99982.22;20367221;28;97800;-75
2022/04/20 17:57:58;;;;;;;103.22;28.90;;;;;;;22.58;36.56;99988.88;20363967;28;97203;-74
2022/04/20 18:07:58;;;;;;;86.68;26.92;;;;;;;22.53;37.33;100005.09;20354207;28;96842;-75
2022/04/20 18:17:59;;;;;;;84.63;23.90;;;;;;;22.55;37.26;100003.19;20362950;28;100161;-75
2022/04/20 18:27:59;;;;;;;60.83;22.17;;;;;;;22.54;38.42;100015.56;20379126;28;101505;-79
2022/04/20 18:38:00;;;;;;;65.97;22.27;;;;;;;22.53;37.89;100013.03;20380504;28;97197;-79
2022/04/20 18:48:02;;;;;;;53.25;18.83;;;;;;;22.49;37.80;100025.66;20375759;28;96983;-78
2022/04/20 18:58:03;;;;;;;56.77;18.00;;;;;;;22.47;38.27;100018.84;20352572;28;97028;-79
2022/04/20 19:08:04;;;;;;;44.55;16.98;;;;;;;22.46;38.08;100025.94;20362846;28;99004;-80
2022/04/20 19:18:05;;;;;;;45.70;15.43;;;;;;;22.38;37.78;100012.59;20379260;28;99692;-78
2022/04/20 19:28:07;;;;;;;36.65;14.85;;;;;;;22.37;37.80;100013.53;20384109;28;97016;-78
2022/04/20 19:38:07;;;;;;;30.73;12.93;;;;;;;22.38;38.71;100020.50;20372666;28;100774;-79
2022/04/20 19:48:08;;;;;;;32.90;13.23;;;;;;;22.38;38.99;100018.69;20350618;28;100709;-78
2022/04/20 19:58:08;;;;;;;27.90;12.18;;;;;;;22.36;39.43;100012.69;20371956;28;99633;-78
2022/04/20 20:08:09;;;;;;;30.08;12.10;;;;;;;22.36;39.79;100011.84;20350693;28;100593;-77
2022/04/20 20:18:09;;;;;;;26.73;11.97;;;;;;;22.36;39.87;100009.22;20362282;28;97502;-77
2022/04/20 20:38:28;;;;;;;22.42;10.25;;;;;;;22.33;39.86;100010.31;20347131;28;98418;-78
2022/04/20 20:58:49;;;;;;;22.17;10.05;;;;;;;22.30;40.15;100007.97;20365907;28;97915;-77
2022/04/20 21:08:49;;;;;;;20.02;9.48;;;;;;;22.28;40.28;100015.19;20357500;28;98145;-78
2022/04/20 21:18:50;;;;;;;19.23;8.93;;;;;;;22.31;40.51;100020.16;20373649;28;101218;-78
2022/04/20 21:28:51;;;;;;;17.73;9.43;;;;;;;22.28;40.71;100015.19;20367971;28;97012;-77
2022/04/20 21:38:52;;;;;;;15.10;8.15;;;;;;;22.30;40.41;100026.44;20364985;28;97811;-78
2022/04/20 21:48:52;;;;;;;18.38;8.90;;;;;;;22.29;40.35;100029.19;20364451;28;101591;-79
2022/04/20 21:58:53;;;;;;;14.73;8.03;;;;;;;22.26;40.69;100027.66;20368616;28;97460;-79
2022/04/20 22:08:55;;;;;;;16.38;7.57;;;;;;;22.27;41.18;100029.31;20357737;28;98612;-77
2022/04/20 22:18:55;;;;;;;16.25;8.05;;;;;;;22.27;41.51;100029.31;20363796;28;98868;-78
2022/04/20 22:28:56;;;;;;;15.18;7.38;;;;;;;22.24;42.05;100026.97;20378331;28;98304;-78
2022/04/20 22:38:58;;;;;;;13.23;7.47;;;;;;;22.25;41.50;100022.53;20370986;28;101044;-78
2022/04/20 22:49:00;;;;;;;11.27;6.82;;;;;;;22.24;41.50;100029.63;20369717;28;102110;-78
2022/04/20 22:59:02;;;;;;;11.77;7.23;;;;;;;22.23;41.64;100036.66;20371140;28;101943;-79
2022/04/20 23:09:02;;;;;;;12.60;7.25;;;;;;;22.19;41.59;100047.63;20356379;28;97910;-78
2022/04/20 23:19:03;;;;;;;11.10;6.90;;;;;;;22.19;41.52;100040.56;20354730;28;100875;-78
2022/04/20 23:29:03;;;;;;;12.07;6.68;;;;;;;22.17;41.05;100046.94;20382145;28;101890;-77
2022/04/20 23:39:04;;;;;;;10.70;6.90;;;;;;;22.17;40.91;100033.75;20410483;28;97755;-79
2022/04/20 23:49:04;;;;;;;11.13;5.95;;;;;;;22.15;40.79;100033.88;20459154;28;101065;-78
2022/04/20 23:59:05;;;;;;;11.00;6.68;;;;;;;22.10;40.80;100030.81;20454086;28;97122;-78
